sensor_id;sensor_type;location;lat;lon;timestamp;pressure;altitude;pressure_sealevel;temperature;humidity
47785;BME280;35233;55.686;37.848;2023-02-03T00:02:20;99089.66;;;10.39;51.68
47785;BME280;35233;55.686;37.848;2023-02-03T00:04:46;99073.22;;;10.31;51.58
47785;BME280;35233;55.686;37.848;2023-02-03T00:07:12;99098.06;;;10.49;51.39
47785;BME280;35233;55.686;37.848;2023-02-03T00:09:39;99066.25;;;10.28;51.89
47785;BME280;35233;55.686;37.848;2023-02-03T00:12:11;99054.34;;;10.16;51.55
47785;BME280;35233;55.686;37.848;2023-02-03T00:14:36;99042.22;;;10.11;51.88
47785;BME280;35233;55.686;37.848;2023-02-03T00:17:02;99055.09;;;10.20;51.83
47785;BME280;35233;55.686;37.848;2023-02-03T00:19:28;99097.38;;;10.43;51.65
47785;BME280;35233;55.686;37.848;2023-02-03T00:21:53;99077.28;;;10.39;51.94
47785;BME280;35233;55.686;37.848;2023-02-03T00:24:22;99077.41;;;10.36;51.70
47785;BME280;35233;55.686;37.848;2023-02-03T00:26:48;99078.31;;;10.35;52.08
47785;BME280;35233;55.686;37.848;2023-02-03T00:29:14;99077.41;;;10.36;52.17
47785;BME280;35233;55.686;37.848;2023-02-03T00:31:49;99099.25;;;10.41;52.27
47785;BME280;35233;55.686;37.848;2023-02-03T00:34:14;99083.53;;;10.37;52.21
47785;BME280;35233;55.686;37.848;2023-02-03T00:36:40;99070.69;;;10.28;52.13
47785;BME280;35233;55.686;37.848;2023-02-03T00:39:05;99092.16;;;10.42;51.98
47785;BME280;35233;55.686;37.848;2023-02-03T00:41:31;99065.41;;;10.26;52.58
47785;BME280;35233;55.686;37.848;2023-02-03T00:43:56;99092.22;;;10.40;52.38
47785;BME280;35233;55.686;37.848;2023-02-03T00:46:22;99095.72;;;10.41;52.53
47785;BME280;35233;55.686;37.848;2023-02-03T00:48:47;99092.16;;;10.42;52.62
47785;BME280;35233;55.686;37.848;2023-02-03T00:51:13;99094.00;;;10.40;52.64
47785;BME280;35233;55.686;37.848;2023-02-03T00:53:39;99099.28;;;10.40;52.71
47785;BME280;35233;55.686;37.848;2023-02-03T00:56:04;99104.56;;;10.40;52.46
47785;BME280;35233;55.686;37.848;2023-02-03T00:58:40;99088.09;;;10.33;52.46
47785;BME280;35233;55.686;37.848;2023-02-03T01:01:06;99103.63;;;10.41;52.74
47785;BME280;35233;55.686;37.848;2023-02-03T01:03:32;99098.47;;;10.38;52.67
47785;BME280;35233;55.686;37.848;2023-02-03T01:06:18;99053.38;;;10.19;52.78
47785;BME280;35233;55.686;37.848;2023-02-03T01:08:44;99087.16;;;10.34;52.76
47785;BME280;35233;55.686;37.848;2023-02-03T01:11:16;99091.50;;;10.35;52.52
47785;BME280;35233;55.686;37.848;2023-02-03T01:13:43;99082.69;;;10.36;52.76
47785;BME280;35233;55.686;37.848;2023-02-03T01:16:10;99086.22;;;10.35;52.86
47785;BME280;35233;55.686;37.848;2023-02-03T01:18:36;99074.06;;;10.31;52.71
47785;BME280;35233;55.686;37.848;2023-02-03T01:21:09;99086.34;;;10.32;52.85
47785;BME280;35233;55.686;37.848;2023-02-03T01:23:36;99083.81;;;10.29;52.68
47785;BME280;35233;55.686;37.848;2023-02-03T01:26:06;99071.66;;;10.24;52.94
47785;BME280;35233;55.686;37.848;2023-02-03T01:28:32;99068.13;;;10.25;52.95
47785;BME280;35233;55.686;37.848;2023-02-03T01:31:16;99073.25;;;10.29;52.79
47785;BME280;35233;55.686;37.848;2023-02-03T01:33:43;99081.94;;;10.33;52.70
47785;BME280;35233;55.686;37.848;2023-02-03T01:36:12;99082.00;;;10.31;53.05
47785;BME280;35233;55.686;37.848;2023-02-03T01:38:38;99072.47;;;10.27;53.15
47785;BME280;35233;55.686;37.848;2023-02-03T01:41:06;99073.34;;;10.26;53.06
47785;BME280;35233;55.686;37.848;2023-02-03T01:43:34;99075.78;;;10.32;52.88
47785;BME280;35233;55.686;37.848;2023-02-03T01:46:04;99073.34;;;10.26;53.17
47785;BME280;35233;55.686;37.848;2023-02-03T01:48:33;99073.34;;;10.26;53.21
47785;BME280;35233;55.686;37.848;2023-02-03T01:51:02;99046.69;;;10.09;53.03
47785;BME280;35233;55.686;37.848;2023-02-03T01:53:29;99044.97;;;10.08;53.08
47785;BME280;35233;55.686;37.848;2023-02-03T01:55:56;99077.63;;;10.30;52.98
47785;BME280;35233;55.686;37.848;2023-02-03T01:58:25;99049.31;;;10.09;53.04
47785;BME280;35233;55.686;37.848;2023-02-03T02:00:52;99063.84;;;10.20;52.90
47785;BME280;35233;55.686;37.848;2023-02-03T02:03:23;99075.13;;;10.27;52.97
47785;BME280;35233;55.686;37.848;2023-02-03T02:05:57;99072.47;;;10.27;52.80
47785;BME280;35233;55.686;37.848;2023-02-03T02:08:25;99043.94;;;10.12;53.24
47785;BME280;35233;55.686;37.848;2023-02-03T02:10:52;99045.78;;;10.10;52.89
47785;BME280;35233;55.686;37.848;2023-02-03T02:13:19;99072.47;;;10.27;53.00
47785;BME280;35233;55.686;37.848;2023-02-03T02:27:02;99063.81;;;10.22;53.19
47785;BME280;35233;55.686;37.848;2023-02-03T02:41:34;99065.59;;;10.22;53.08
47785;BME280;35233;55.686;37.848;2023-02-03T02:44:25;99063.69;;;10.25;53.03
47785;BME280;35233;55.686;37.848;2023-02-03T02:46:57;99058.44;;;10.25;52.99
47785;BME280;35233;55.686;37.848;2023-02-03T02:49:30;99065.41;;;10.26;53.11
47785;BME280;35233;55.686;37.848;2023-02-03T02:52:00;99054.19;;;10.21;53.14
47785;BME280;35233;55.686;37.848;2023-02-03T02:54:27;99049.81;;;10.20;53.12
47785;BME280;35233;55.686;37.848;2023-02-03T02:56:58;99048.09;;;10.19;53.03
47785;BME280;35233;55.686;37.848;2023-02-03T02:59:25;99043.66;;;10.19;53.05
47785;BME280;35233;55.686;37.848;2023-02-03T03:01:50;99054.00;;;10.26;53.09
47785;BME280;35233;55.686;37.848;2023-02-03T03:04:20;99017.84;;;10.04;53.33
47785;BME280;35233;55.686;37.848;2023-02-03T03:06:52;99039.47;;;10.14;53.06
47785;BME280;35233;55.686;37.848;2023-02-03T03:09:26;99001.34;;;9.97;53.45
47785;BME280;35233;55.686;37.848;2023-02-03T03:11:59;99054.84;;;10.26;53.10
47785;BME280;35233;55.686;37.848;2023-02-03T03:14:30;99042.97;;;10.14;53.16
47785;BME280;35233;55.686;37.848;2023-02-03T03:17:02;99041.97;;;10.18;53.11
47785;BME280;35233;55.686;37.848;2023-02-03T03:19:42;99043.09;;;10.11;53.22
47785;BME280;35233;55.686;37.848;2023-02-03T03:22:13;99062.84;;;10.25;53.45
47785;BME280;35233;55.686;37.848;2023-02-03T03:24:47;99064.56;;;10.26;53.09
47785;BME280;35233;55.686;37.848;2023-02-03T03:27:22;99059.34;;;10.24;53.40
47785;BME280;35233;55.686;37.848;2023-02-03T03:32:19;99034.47;;;10.06;53.56
47785;BME280;35233;55.686;37.848;2023-02-03T03:34:45;99051.63;;;10.18;53.51
47785;BME280;35233;55.686;37.848;2023-02-03T03:42:28;99060.25;;;10.23;53.71
47785;BME280;35233;55.686;37.848;2023-02-03T03:45:17;99068.97;;;10.25;53.21
47785;BME280;35233;55.686;37.848;2023-02-03T03:48:00;99058.47;;;10.24;53.20
47785;BME280;35233;55.686;37.848;2023-02-03T03:50:42;99059.28;;;10.26;53.55
47785;BME280;35233;55.686;37.848;2023-02-03T03:53:10;99036.19;;;10.07;53.65
47785;BME280;35233;55.686;37.848;2023-02-03T03:55:38;99036.13;;;10.09;53.31
47785;BME280;35233;55.686;37.848;2023-02-03T03:58:08;99046.47;;;10.15;53.70
47785;BME280;35233;55.686;37.848;2023-02-03T04:00:37;99038.78;;;10.09;53.58
47785;BME280;35233;55.686;37.848;2023-02-03T04:03:16;99041.38;;;10.10;53.76
47785;BME280;35233;55.686;37.848;2023-02-03T04:05:44;99070.69;;;10.26;53.76
47785;BME280;35233;55.686;37.848;2023-02-03T04:08:10;99061.09;;;10.24;53.36
47785;BME280;35233;55.686;37.848;2023-02-03T04:10:40;99071.63;;;10.25;53.78
47785;BME280;35233;55.686;37.848;2023-02-03T04:13:07;99063.81;;;10.22;53.57
47785;BME280;35233;55.686;37.848;2023-02-03T04:15:34;99017.25;;;9.96;53.44
47785;BME280;35233;55.686;37.848;2023-02-03T04:18:00;99050.84;;;10.16;53.77
47785;BME280;35233;55.686;37.848;2023-02-03T04:20:27;99048.34;;;10.11;53.59
47785;BME280;35233;55.686;37.848;2023-02-03T04:22:52;99038.84;;;10.07;53.42
47785;BME280;35233;55.686;37.848;2023-02-03T04:25:19;99044.00;;;10.10;53.58
47785;BME280;35233;55.686;37.848;2023-02-03T04:27:44;99066.34;;;10.25;53.57
47785;BME280;35233;55.686;37.848;2023-02-03T04:30:11;99061.22;;;10.20;53.66
47785;BME280;35233;55.686;37.848;2023-02-03T04:32:37;99059.47;;;10.21;53.37
47785;BME280;35233;55.686;37.848;2023-02-03T04:35:04;99062.88;;;10.23;53.47
47785;BME280;35233;55.686;37.848;2023-02-03T04:37:31;99061.19;;;10.22;53.41
47785;BME280;35233;55.686;37.848;2023-02-03T04:39:57;99065.66;;;10.20;53.25
47785;BME280;35233;55.686;37.848;2023-02-03T04:42:23;99062.19;;;10.18;53.41
47785;BME280;35233;55.686;37.848;2023-02-03T04:44:49;99058.66;;;10.19;53.25
47785;BME280;35233;55.686;37.848;2023-02-03T04:47:16;99062.97;;;10.22;53.73
47785;BME280;35233;55.686;37.848;2023-02-03T04:49:42;99067.38;;;10.21;53.40
47785;BME280;35233;55.686;37.848;2023-02-03T04:52:08;99063.94;;;10.19;53.56
47785;BME280;35233;55.686;37.848;2023-02-03T04:54:34;99048.31;;;10.13;53.48
47785;BME280;35233;55.686;37.848;2023-02-03T04:57:00;99063.81;;;10.22;53.41
47785;BME280;35233;55.686;37.848;2023-02-03T04:59:25;99066.50;;;10.20;53.28
47785;BME280;35233;55.686;37.848;2023-02-03T05:01:51;99068.06;;;10.26;53.33
47785;BME280;35233;55.686;37.848;2023-02-03T05:04:17;99050.88;;;10.14;53.38
47785;BME280;35233;55.686;37.848;2023-02-03T05:06:42;99046.44;;;10.16;53.17
47785;BME280;35233;55.686;37.848;2023-02-03T05:09:08;99061.19;;;10.22;52.95
47785;BME280;35233;55.686;37.848;2023-02-03T05:11:33;99065.66;;;10.20;53.18
47785;BME280;35233;55.686;37.848;2023-02-03T05:13:59;99060.25;;;10.23;53.19
47785;BME280;35233;55.686;37.848;2023-02-03T05:16:25;99064.69;;;10.23;52.97
47785;BME280;35233;55.686;37.848;2023-02-03T05:18:50;99063.94;;;10.19;52.94
47785;BME280;35233;55.686;37.848;2023-02-03T05:21:16;99072.59;;;10.23;53.33
47785;BME280;35233;55.686;37.848;2023-02-03T05:23:42;99071.59;;;10.27;53.11
47785;BME280;35233;55.686;37.848;2023-02-03T05:26:07;99068.25;;;10.22;53.11
47785;BME280;35233;55.686;37.848;2023-02-03T05:28:33;99065.50;;;10.25;52.95
47785;BME280;35233;55.686;37.848;2023-02-03T05:30:59;99063.84;;;10.20;52.99
47785;BME280;35233;55.686;37.848;2023-02-03T05:33:26;99064.69;;;10.23;52.77
47785;BME280;35233;55.686;37.848;2023-02-03T05:35:51;99056.91;;;10.18;53.05
47785;BME280;35233;55.686;37.848;2023-02-03T05:38:17;99063.69;;;10.25;53.08
47785;BME280;35233;55.686;37.848;2023-02-03T05:40:42;99067.19;;;10.26;52.87
47785;BME280;35233;55.686;37.848;2023-02-03T05:43:27;99067.19;;;10.27;52.89
47785;BME280;35233;55.686;37.848;2023-02-03T05:45:53;99061.91;;;10.26;52.73
47785;BME280;35233;55.686;37.848;2023-02-03T05:48:19;99056.88;;;10.19;53.26
47785;BME280;35233;55.686;37.848;2023-02-03T05:50:44;99068.13;;;10.25;53.03
47785;BME280;35233;55.686;37.848;2023-02-03T05:53:10;99074.25;;;10.25;53.07
47785;BME280;35233;55.686;37.848;2023-02-03T05:55:36;99070.69;;;10.28;53.23
47785;BME280;35233;55.686;37.848;2023-02-03T05:58:03;99075.91;;;10.29;52.82
47785;BME280;35233;55.686;37.848;2023-02-03T06:00:28;99068.91;;;10.28;52.96
47785;BME280;35233;55.686;37.848;2023-02-03T06:02:57;99075.91;;;10.29;53.13
47785;BME280;35233;55.686;37.848;2023-02-03T06:05:23;99063.69;;;10.25;53.25
47785;BME280;35233;55.686;37.848;2023-02-03T06:07:49;99064.75;;;10.21;52.91
47785;BME280;35233;55.686;37.848;2023-02-03T06:10:16;99073.34;;;10.26;53.26
47785;BME280;35233;55.686;37.848;2023-02-03T06:12:41;99082.91;;;10.30;53.17
47785;BME280;35233;55.686;37.848;2023-02-03T06:15:07;99081.06;;;10.32;53.13
47785;BME280;35233;55.686;37.848;2023-02-03T06:17:33;99063.66;;;10.27;53.05
47785;BME280;35233;55.686;37.848;2023-02-03T06:20:11;99079.34;;;10.31;52.93
47785;BME280;35233;55.686;37.848;2023-02-03T06:22:38;99049.06;;;10.16;53.36
47785;BME280;35233;55.686;37.848;2023-02-03T06:25:04;99082.00;;;10.31;53.13
47785;BME280;35233;55.686;37.848;2023-02-03T06:27:30;99075.91;;;10.29;53.32
47785;BME280;35233;55.686;37.848;2023-02-03T06:29:55;99062.03;;;10.23;52.87
47785;BME280;35233;55.686;37.848;2023-02-03T06:32:21;99080.28;;;10.30;53.03
47785;BME280;35233;55.686;37.848;2023-02-03T06:34:46;99083.78;;;10.31;52.98
47785;BME280;35233;55.686;37.848;2023-02-03T06:37:15;99083.53;;;10.37;52.92
47785;BME280;35233;55.686;37.848;2023-02-03T06:39:40;99068.06;;;10.28;53.46
47785;BME280;35233;55.686;37.848;2023-02-03T06:42:06;99072.94;;;10.38;52.97
47785;BME280;35233;55.686;37.848;2023-02-03T06:44:32;99077.41;;;10.36;53.17
47785;BME280;35233;55.686;37.848;2023-02-03T06:46:57;99071.19;;;10.37;53.33
47785;BME280;35233;55.686;37.848;2023-02-03T06:49:23;99053.88;;;10.30;53.38
47785;BME280;35233;55.686;37.848;2023-02-03T06:51:49;99072.72;;;10.45;53.33
47785;BME280;35233;55.686;37.848;2023-02-03T06:54:16;99074.38;;;10.47;53.13
47785;BME280;35233;55.686;37.848;2023-02-03T06:56:42;99068.34;;;10.43;53.28
47785;BME280;35233;55.686;37.848;2023-02-03T06:59:08;99076.84;;;10.52;52.77
47785;BME280;35233;55.686;37.848;2023-02-03T07:01:35;99049.34;;;10.34;53.20
47785;BME280;35233;55.686;37.848;2023-02-03T07:04:00;99079.56;;;10.50;53.12
47785;BME280;35233;55.686;37.848;2023-02-03T07:06:27;99049.38;;;10.32;52.98
47785;BME280;35233;55.686;37.848;2023-02-03T07:08:59;99083.91;;;10.51;53.27
47785;BME280;35233;55.686;37.848;2023-02-03T07:11:25;99075.41;;;10.43;53.21
47785;BME280;35233;55.686;37.848;2023-02-03T07:13:51;99070.34;;;10.37;53.30
47785;BME280;35233;55.686;37.848;2023-02-03T07:16:16;99076.25;;;10.43;53.18
47785;BME280;35233;55.686;37.848;2023-02-03T07:18:42;99044.28;;;10.26;53.10
47785;BME280;35233;55.686;37.848;2023-02-03T07:21:08;99064.84;;;10.43;53.16
47785;BME280;35233;55.686;37.848;2023-02-03T07:23:33;99069.97;;;10.48;52.87
47785;BME280;35233;55.686;37.848;2023-02-03T07:26:03;99085.47;;;10.57;52.92
47785;BME280;35233;55.686;37.848;2023-02-03T07:28:30;99089.00;;;10.56;53.18
47785;BME280;35233;55.686;37.848;2023-02-03T07:30:56;99056.19;;;10.39;52.76
47785;BME280;35233;55.686;37.848;2023-02-03T07:33:22;99073.25;;;10.53;52.65
47785;BME280;35233;55.686;37.848;2023-02-03T07:35:55;99085.47;;;10.57;53.08
47785;BME280;35233;55.686;37.848;2023-02-03T07:38:22;99083.63;;;10.59;53.15
47785;BME280;35233;55.686;37.848;2023-02-03T07:40:48;99053.34;;;10.44;52.97
47785;BME280;35233;55.686;37.848;2023-02-03T07:43:14;99073.97;;;10.58;53.14
47785;BME280;35233;55.686;37.848;2023-02-03T07:45:39;99058.53;;;10.47;53.07
47785;BME280;35233;55.686;37.848;2023-02-03T07:48:05;99075.72;;;10.59;52.83
47785;BME280;35233;55.686;37.848;2023-02-03T07:50:31;99076.44;;;10.62;52.89
47785;BME280;35233;55.686;37.848;2023-02-03T07:53:00;99073.59;;;10.67;53.01
47785;BME280;35233;55.686;37.848;2023-02-03T07:55:26;99073.50;;;10.70;52.78
47785;BME280;35233;55.686;37.848;2023-02-03T07:57:57;99063.97;;;10.66;53.05
47785;BME280;35233;55.686;37.848;2023-02-03T08:00:23;99064.59;;;10.73;52.64
47785;BME280;35233;55.686;37.848;2023-02-03T08:02:49;99068.03;;;10.75;52.73
47785;BME280;35233;55.686;37.848;2023-02-03T08:05:15;99059.31;;;10.73;53.12
47785;BME280;35233;55.686;37.848;2023-02-03T08:07:41;99055.13;;;10.67;52.94
47785;BME280;35233;55.686;37.848;2023-02-03T08:10:08;99071.63;;;10.74;52.87
47785;BME280;35233;55.686;37.848;2023-02-03T08:12:33;99062.03;;;10.71;53.17
47785;BME280;35233;55.686;37.848;2023-02-03T08:14:59;99072.47;;;10.74;53.25
47785;BME280;35233;55.686;37.848;2023-02-03T08:17:25;99064.56;;;10.74;52.88
47785;BME280;35233;55.686;37.848;2023-02-03T08:19:50;99069.09;;;10.71;53.13
47785;BME280;35233;55.686;37.848;2023-02-03T08:22:16;99069.13;;;10.69;53.49
47785;BME280;35233;55.686;37.848;2023-02-03T08:24:43;99068.31;;;10.67;53.60
47785;BME280;35233;55.686;37.848;2023-02-03T08:27:18;99074.44;;;10.69;53.61
47785;BME280;35233;55.686;37.848;2023-02-03T08:29:44;99053.53;;;10.63;53.55
47785;BME280;35233;55.686;37.848;2023-02-03T08:32:15;99053.66;;;10.60;53.26
47785;BME280;35233;55.686;37.848;2023-02-03T08:34:41;99073.69;;;10.65;53.76
47785;BME280;35233;55.686;37.848;2023-02-03T08:37:06;99067.53;;;10.65;53.51
47785;BME280;35233;55.686;37.848;2023-02-03T08:39:33;99059.63;;;10.65;53.64
47785;BME280;35233;55.686;37.848;2023-02-03T08:41:59;99061.44;;;10.63;53.50
47785;BME280;35233;55.686;37.848;2023-02-03T08:44:25;99058.66;;;10.68;53.38
47785;BME280;35233;55.686;37.848;2023-02-03T08:46:52;99061.06;;;10.74;53.60
47785;BME280;35233;55.686;37.848;2023-02-03T08:49:18;99065.44;;;10.73;53.51
47785;BME280;35233;55.686;37.848;2023-02-03T08:51:45;99041.38;;;10.59;53.78
47785;BME280;35233;55.686;37.848;2023-02-03T08:54:10;99032.50;;;10.60;53.52
47785;BME280;35233;55.686;37.848;2023-02-03T08:56:36;99036.09;;;10.59;53.87
47785;BME280;35233;55.686;37.848;2023-02-03T08:59:02;99036.88;;;10.61;53.63
47785;BME280;35233;55.686;37.848;2023-02-03T09:01:28;99063.69;;;10.74;53.76
47785;BME280;35233;55.686;37.848;2023-02-03T09:03:53;99061.22;;;10.69;53.55
47785;BME280;35233;55.686;37.848;2023-02-03T09:06:19;99049.72;;;10.70;53.48
47785;BME280;35233;55.686;37.848;2023-02-03T09:08:46;99066.22;;;10.77;53.47
47785;BME280;35233;55.686;37.848;2023-02-03T09:11:14;99052.34;;;10.70;53.70
47785;BME280;35233;55.686;37.848;2023-02-03T09:13:40;99062.81;;;10.73;53.53
47785;BME280;35233;55.686;37.848;2023-02-03T09:16:10;99061.94;;;10.73;53.82
47785;BME280;35233;55.686;37.848;2023-02-03T09:18:36;99053.06;;;10.75;53.52
47785;BME280;35233;55.686;37.848;2023-02-03T09:21:07;99062.47;;;10.82;53.44
47785;BME280;35233;55.686;37.848;2023-02-03T09:23:33;99047.75;;;10.75;53.41
47785;BME280;35233;55.686;37.848;2023-02-03T09:26:05;99054.03;;;10.73;53.43
47785;BME280;35233;55.686;37.848;2023-02-03T09:28:32;99057.53;;;10.73;53.77
47785;BME280;35233;55.686;37.848;2023-02-03T09:31:02;99060.16;;;10.73;53.81
47785;BME280;35233;55.686;37.848;2023-02-03T09:33:27;99046.19;;;10.71;53.93
47785;BME280;35233;55.686;37.848;2023-02-03T09:35:54;99053.06;;;10.75;53.42
47785;BME280;35233;55.686;37.848;2023-02-03T09:38:20;99055.41;;;10.83;53.40
47785;BME280;35233;55.686;37.848;2023-02-03T09:40:50;99051.59;;;10.90;53.45
47785;BME280;35233;55.686;37.848;2023-02-03T09:43:37;99046.31;;;10.90;53.40
47785;BME280;35233;55.686;37.848;2023-02-03T09:46:15;99055.84;;;10.94;53.06
47785;BME280;35233;55.686;37.848;2023-02-03T09:49:46;99051.31;;;10.98;53.18
47785;BME280;35233;55.686;37.848;2023-02-03T09:52:22;99053.75;;;11.02;53.34
47785;BME280;35233;55.686;37.848;2023-02-03T09:55:05;99030.28;;;10.95;53.10
47785;BME280;35233;55.686;37.848;2023-02-03T09:58:00;99039.03;;;10.97;53.16
47785;BME280;35233;55.686;37.848;2023-02-03T10:01:00;99052.75;;;11.05;53.06
47785;BME280;35233;55.686;37.848;2023-02-03T10:03:34;99047.59;;;11.02;53.24
47785;BME280;35233;55.686;37.848;2023-02-03T10:16:44;99043.00;;;11.07;52.97
47785;BME280;35233;55.686;37.848;2023-02-03T10:19:16;99039.41;;;11.08;53.11
47785;BME280;35233;55.686;37.848;2023-02-03T10:21:51;99035.03;;;11.08;53.08
47785;BME280;35233;55.686;37.848;2023-02-03T10:24:42;99042.88;;;11.10;53.20
47785;BME280;35233;55.686;37.848;2023-02-03T10:27:18;99036.91;;;11.05;53.01
47785;BME280;35233;55.686;37.848;2023-02-03T10:29:50;99037.84;;;11.04;53.25
47785;BME280;35233;55.686;37.848;2023-02-03T10:32:18;99025.03;;;10.93;53.33
47785;BME280;35233;55.686;37.848;2023-02-03T10:34:46;99038.81;;;11.01;53.39
47785;BME280;35233;55.686;37.848;2023-02-03T10:37:16;99036.13;;;11.03;53.29
47785;BME280;35233;55.686;37.848;2023-02-03T10:39:48;99036.25;;;11.00;52.97
47785;BME280;35233;55.686;37.848;2023-02-03T10:42:15;99027.50;;;10.98;53.03
47785;BME280;35233;55.686;37.848;2023-02-03T10:44:46;99034.38;;;11.02;53.09
47785;BME280;35233;55.686;37.848;2023-02-03T10:48:05;99025.91;;;10.94;53.37
47785;BME280;35233;55.686;37.848;2023-02-03T10:50:25;99032.69;;;11.01;53.46
47785;BME280;35233;55.686;37.848;2023-02-03T10:55:43;99034.47;;;11.00;53.34
47785;BME280;35233;55.686;37.848;2023-02-03T10:58:15;99031.09;;;10.97;53.75
47785;BME280;35233;55.686;37.848;2023-02-03T11:00:42;99032.56;;;11.04;53.45
47785;BME280;35233;55.686;37.848;2023-02-03T11:05:39;99028.19;;;11.03;53.48
47785;BME280;35233;55.686;37.848;2023-02-03T11:08:13;99014.22;;;10.99;53.64
47785;BME280;35233;55.686;37.848;2023-02-03T11:10:39;99019.22;;;11.07;53.64
47785;BME280;35233;55.686;37.848;2023-02-03T11:13:25;99016.53;;;11.08;53.62
47785;BME280;35233;55.686;37.848;2023-02-03T11:15:56;99008.63;;;11.07;53.73
47785;BME280;35233;55.686;37.848;2023-02-03T11:26:30;99022.16;;;11.21;53.99
47785;BME280;35233;55.686;37.848;2023-02-03T11:28:58;99001.56;;;11.07;53.99
47785;BME280;35233;55.686;37.848;2023-02-03T11:31:33;98992.84;;;11.05;53.93
47785;BME280;35233;55.686;37.848;2023-02-03T11:34:03;99008.34;;;11.15;53.88
47785;BME280;35233;55.686;37.848;2023-02-03T11:36:32;99016.69;;;11.26;53.79
47785;BME280;35233;55.686;37.848;2023-02-03T11:39:28;99014.09;;;11.24;54.08
47785;BME280;35233;55.686;37.848;2023-02-03T11:41:54;99019.13;;;11.30;53.87
47785;BME280;35233;55.686;37.848;2023-02-03T11:47:11;98998.50;;;11.18;54.06
47785;BME280;35233;55.686;37.848;2023-02-03T12:00:02;99005.50;;;11.19;54.00
47785;BME280;35233;55.686;37.848;2023-02-03T12:08:07;99003.72;;;11.40;53.80
47785;BME280;35233;55.686;37.848;2023-02-03T12:21:50;98992.16;;;11.43;53.26
47785;BME280;35233;55.686;37.848;2023-02-03T12:29:42;98980.28;;;11.32;53.59
47785;BME280;35233;55.686;37.848;2023-02-03T12:35:35;98994.81;;;11.43;53.25
47785;BME280;35233;55.686;37.848;2023-02-03T12:38:12;98988.94;;;11.36;53.24
47785;BME280;35233;55.686;37.848;2023-02-03T12:40:51;98997.72;;;11.37;53.22
47785;BME280;35233;55.686;37.848;2023-02-03T12:43:29;98989.13;;;11.31;53.27
47785;BME280;35233;55.686;37.848;2023-02-03T12:48:47;98989.25;;;11.28;53.22
47785;BME280;35233;55.686;37.848;2023-02-03T12:51:27;98983.94;;;11.28;53.39
47785;BME280;35233;55.686;37.848;2023-02-03T12:54:00;98992.56;;;11.33;53.29
47785;BME280;35233;55.686;37.848;2023-02-03T12:56:32;98971.97;;;11.20;53.72
47785;BME280;35233;55.686;37.848;2023-02-03T12:59:08;98982.25;;;11.27;53.76
47785;BME280;35233;55.686;37.848;2023-02-03T13:01:51;98992.78;;;11.29;53.46
47785;BME280;35233;55.686;37.848;2023-02-03T13:12:33;98986.22;;;11.17;53.88
47785;BME280;35233;55.686;37.848;2023-02-03T13:20:25;98993.47;;;11.12;53.68
47785;BME280;35233;55.686;37.848;2023-02-03T13:22:51;98992.53;;;11.13;53.77
47785;BME280;35233;55.686;37.848;2023-02-03T13:25:29;99000.53;;;11.12;53.88
47785;BME280;35233;55.686;37.848;2023-02-03T13:36:19;98990.25;;;11.04;53.82
47785;BME280;35233;55.686;37.848;2023-02-03T13:41:50;98994.81;;;11.00;53.55
47785;BME280;35233;55.686;37.848;2023-02-03T13:44:21;98993.97;;;11.00;53.85
47785;BME280;35233;55.686;37.848;2023-02-03T13:46:51;98994.69;;;11.03;53.69
47785;BME280;35233;55.686;37.848;2023-02-03T13:49:32;98995.69;;;11.01;53.59
47785;BME280;35233;55.686;37.848;2023-02-03T13:51:58;99001.81;;;11.01;53.56
47785;BME280;35233;55.686;37.848;2023-02-03T13:54:36;98988.72;;;10.98;53.45
47785;BME280;35233;55.686;37.848;2023-02-03T13:57:19;98965.63;;;10.81;53.64
47785;BME280;35233;55.686;37.848;2023-02-03T13:59:45;99004.66;;;10.97;53.54
47785;BME280;35233;55.686;37.848;2023-02-03T14:07:38;99004.66;;;10.97;53.51
47785;BME280;35233;55.686;37.848;2023-02-03T14:10:15;99007.31;;;10.97;53.58
47785;BME280;35233;55.686;37.848;2023-02-03T14:17:59;99015.41;;;10.92;53.70
47785;BME280;35233;55.686;37.848;2023-02-03T14:23:13;99008.34;;;10.93;54.06
47785;BME280;35233;55.686;37.848;2023-02-03T14:26:00;98997.03;;;10.89;53.89
47785;BME280;35233;55.686;37.848;2023-02-03T14:28:39;99005.75;;;10.91;54.13
47785;BME280;35233;55.686;37.848;2023-02-03T14:31:19;98992.00;;;10.83;54.04
47785;BME280;35233;55.686;37.848;2023-02-03T14:34:02;99002.38;;;10.87;54.32
47785;BME280;35233;55.686;37.848;2023-02-03T14:36:38;99006.75;;;10.88;54.23
47785;BME280;35233;55.686;37.848;2023-02-03T14:41:57;99005.88;;;10.88;54.27
47785;BME280;35233;55.686;37.848;2023-02-03T14:47:14;98999.91;;;10.83;54.38
47785;BME280;35233;55.686;37.848;2023-02-03T14:50:07;99003.28;;;10.86;54.27
47785;BME280;35233;55.686;37.848;2023-02-03T14:57:54;99005.13;;;10.84;54.31
47785;BME280;35233;55.686;37.848;2023-02-03T15:05:43;98994.81;;;10.78;54.27
47785;BME280;35233;55.686;37.848;2023-02-03T15:10:57;99009.69;;;10.81;54.23
47785;BME280;35233;55.686;37.848;2023-02-03T15:13:28;99002.59;;;10.81;54.24
47785;BME280;35233;55.686;37.848;2023-02-03T15:15:59;98998.31;;;10.79;54.17
47785;BME280;35233;55.686;37.848;2023-02-03T15:18:35;98995.75;;;10.77;54.23
47785;BME280;35233;55.686;37.848;2023-02-03T15:21:02;98994.94;;;10.75;53.98
47785;BME280;35233;55.686;37.848;2023-02-03T15:23:39;98987.25;;;10.69;54.36
47785;BME280;35233;55.686;37.848;2023-02-03T15:26:15;99011.38;;;10.82;54.54
47785;BME280;35233;55.686;37.848;2023-02-03T15:28:43;99012.44;;;10.78;54.57
47785;BME280;35233;55.686;37.848;2023-02-03T15:31:40;99014.84;;;10.84;54.48
47785;BME280;35233;55.686;37.848;2023-02-03T15:37:27;98986.44;;;10.67;54.74
47785;BME280;35233;55.686;37.848;2023-02-03T15:40:02;99001.16;;;10.74;54.75
47785;BME280;35233;55.686;37.848;2023-02-03T15:42:35;99015.03;;;10.79;54.54